Time,TemperatureF,DewpointF,PressureIn,WindDirection,WindDirectionDegrees,WindSpeedMPH,WindSpeedGustMPH,Humidity,HourlyPrecipIn,Conditions,Clouds,dailyrainin,SoftwareType,DateUTC
2013-01-11 00:03:00,43.0,43.0,-100.00,SE,130,8.0,14.0,99,-99.99,,,-99.99,,2013-01-11 06:03:00,
2013-01-11 00:12:00,43.0,43.0,-100.00,SE,130,8.0,14.0,99,-99.99,,,-99.99,,2013-01-11 06:12:00,
2013-01-11 00:22:00,43.0,43.0,-100.00,SE,130,8.0,14.0,99,-99.99,,,-99.99,,2013-01-11 06:22:00,
2013-01-11 00:30:00,43.0,43.0,-100.00,East,85,5.0,8.0,99,-99.99,,,-99.99,,2013-01-11 06:30:00,
2013-01-11 00:52:00,43.0,43.0,-100.00,East,85,5.0,8.0,99,-99.99,,,-99.99,,2013-01-11 06:52:00,
2013-01-11 01:02:00,43.0,43.0,-100.00,East,85,5.0,8.0,99,-99.99,,,-99.99,,2013-01-11 07:02:00,
2013-01-11 01:12:00,43.0,43.0,-100.00,East,85,5.0,8.0,99,-99.99,,,-99.99,,2013-01-11 07:12:00,
2013-01-11 01:22:00,43.0,43.0,-100.00,East,85,5.0,8.0,99,-99.99,,,-99.99,,2013-01-11 07:22:00,
2013-01-11 02:53:00,43.0,43.0,-100.00,ESE,120,4.0,8.0,99,-99.99,,,-99.99,,2013-01-11 08:53:00,
2013-01-11 03:02:00,43.0,43.0,-100.00,ESE,120,4.0,8.0,99,-99.99,,,-99.99,,2013-01-11 09:02:00,
2013-01-11 03:12:00,43.0,43.0,-100.00,ESE,120,4.0,8.0,99,-99.99,,,-99.99,,2013-01-11 09:12:00,
2013-01-11 03:22:00,43.0,43.0,-100.00,ESE,120,4.0,8.0,99,-99.99,,,-99.99,,2013-01-11 09:22:00,
2013-01-11 04:52:00,43.0,43.0,-100.00,ENE,75,1.0,2.0,99,-99.99,,,-99.99,,2013-01-11 10:52:00,
2013-01-11 05:03:00,43.0,43.0,-100.00,ENE,75,1.0,2.0,99,-99.99,,,-99.99,,2013-01-11 11:03:00,
2013-01-11 05:12:00,43.0,43.0,-100.00,ENE,75,1.0,2.0,99,-99.99,,,-99.99,,2013-01-11 11:12:00,
2013-01-11 05:22:00,43.0,43.0,-100.00,ENE,75,1.0,2.0,99,-99.99,,,-99.99,,2013-01-11 11:22:00,
2013-01-11 06:53:00,43.0,43.0,-100.00,ESE,120,1.0,3.0,99,-99.99,,,-99.99,,2013-01-11 12:53:00,
2013-01-11 07:03:00,43.0,43.0,-100.00,ESE,120,1.0,3.0,99,-99.99,,,-99.99,,2013-01-11 13:03:00,
2013-01-11 07:13:00,43.0,43.0,-100.00,ESE,120,1.0,3.0,99,-99.99,,,-99.99,,2013-01-11 13:13:00,
2013-01-11 07:22:00,43.0,43.0,-100.00,ESE,120,1.0,3.0,99,-99.99,,,-99.99,,2013-01-11 13:22:00,
2013-01-11 08:53:00,44.0,43.0,-100.00,SSE,160,2.0,6.0,99,-99.99,,,-99.99,,2013-01-11 14:53:00,
2013-01-11 09:03:00,44.0,43.0,-100.00,SSE,160,2.0,6.0,99,-99.99,,,-99.99,,2013-01-11 15:03:00,
2013-01-11 09:13:00,44.0,43.0,-100.00,SSE,160,2.0,6.0,99,-99.99,,,-99.99,,2013-01-11 15:13:00,
2013-01-11 09:23:00,44.0,43.0,-100.00,SSE,160,2.0,6.0,99,-99.99,,,-99.99,,2013-01-11 15:23:00,
2013-01-11 09:30:00,44.0,44.0,-100.00,SSE,150,2.0,6.0,99,-99.99,,,-99.99,,2013-01-11 15:30:00,
2013-01-11 09:53:00,44.0,44.0,-100.00,SSE,150,2.0,6.0,99,-99.99,,,-99.99,,2013-01-11 15:53:00,
2013-01-11 10:03:00,44.0,44.0,-100.00,SSE,150,2.0,6.0,99,-99.99,,,-99.99,,2013-01-11 16:03:00,
2013-01-11 10:12:00,44.0,44.0,-100.00,SSE,150,2.0,6.0,99,-99.99,,,-99.99,,2013-01-11 16:12:00,
2013-01-11 10:22:00,44.0,44.0,-100.00,SSE,150,2.0,6.0,99,-99.99,,,-99.99,,2013-01-11 16:22:00,
2013-01-11 11:53:00,47.0,47.0,-100.00,South,170,2.0,5.0,99,-99.99,,,-99.99,,2013-01-11 17:53:00,
2013-01-11 12:03:00,47.0,47.0,-100.00,South,170,2.0,5.0,99,-99.99,,,-99.99,,2013-01-11 18:03:00,
2013-01-11 12:12:00,47.0,47.0,-100.00,South,170,2.0,5.0,99,-99.99,,,-99.99,,2013-01-11 18:12:00,
2013-01-11 12:23:00,47.0,47.0,-100.00,South,170,2.0,5.0,99,-99.99,,,-99.99,,2013-01-11 18:23:00,
2013-01-11 12:53:00,47.0,47.0,-100.00,ESE,115,0.0,2.0,99,-99.99,,,-99.99,,2013-01-11 18:53:00,
2013-01-11 13:03:00,47.0,47.0,-100.00,ESE,115,0.0,2.0,99,-99.99,,,-99.99,,2013-01-11 19:03:00,
2013-01-11 13:12:00,47.0,47.0,-100.00,ESE,115,0.0,2.0,99,-99.99,,,-99.99,,2013-01-11 19:12:00,
2013-01-11 13:22:00,47.0,47.0,-100.00,ESE,115,0.0,2.0,99,-99.99,,,-99.99,,2013-01-11 19:22:00,
2013-01-11 13:53:00,47.0,46.0,-100.00,SSE,165,3.0,6.0,99,-99.99,,,-99.99,,2013-01-11 19:53:00,
2013-01-11 14:03:00,47.0,46.0,-100.00,SSE,165,3.0,6.0,99,-99.99,,,-99.99,,2013-01-11 20:03:00,
2013-01-11 14:12:00,47.0,46.0,-100.00,SSE,165,3.0,6.0,99,-99.99,,,-99.99,,2013-01-11 20:12:00,
2013-01-11 14:22:00,47.0,46.0,-100.00,SSE,165,3.0,6.0,99,-99.99,,,-99.99,,2013-01-11 20:22:00,
2013-01-11 14:53:00,47.0,47.0,-100.00,SE,130,5.0,7.0,99,-99.99,,,-99.99,,2013-01-11 20:53:00,
2013-01-11 15:03:00,47.0,47.0,-100.00,SE,130,5.0,7.0,99,-99.99,,,-99.99,,2013-01-11 21:03:00,
2013-01-11 15:12:00,47.0,47.0,-100.00,SE,130,5.0,7.0,99,-99.99,,,-99.99,,2013-01-11 21:12:00,
2013-01-11 15:23:00,47.0,47.0,-100.00,SE,130,5.0,7.0,99,-99.99,,,-99.99,,2013-01-11 21:23:00,
2013-01-11 15:53:00,46.0,46.0,-100.00,SSE,155,4.0,7.0,99,-99.99,,,-99.99,,2013-01-11 21:53:00,
2013-01-11 16:02:00,46.0,46.0,-100.00,SSE,155,4.0,7.0,99,-99.99,,,-99.99,,2013-01-11 22:02:00,
2013-01-11 16:12:00,46.0,46.0,-100.00,SSE,155,4.0,7.0,99,-99.99,,,-99.99,,2013-01-11 22:12:00,
2013-01-11 16:22:00,46.0,46.0,-100.00,SSE,155,4.0,7.0,99,-99.99,,,-99.99,,2013-01-11 22:22:00,
2013-01-11 16:53:00,46.0,46.0,-100.00,SSE,160,6.0,9.0,99,-99.99,,,-99.99,,2013-01-11 22:53:00,
2013-01-11 17:02:00,46.0,46.0,-100.00,SSE,160,6.0,9.0,99,-99.99,,,-99.99,,2013-01-11 23:02:00,
2013-01-11 17:13:00,46.0,46.0,-100.00,SSE,160,6.0,9.0,99,-99.99,,,-99.99,,2013-01-11 23:13:00,
2013-01-11 17:22:00,46.0,46.0,-100.00,SSE,160,6.0,9.0,99,-99.99,,,-99.99,,2013-01-11 23:22:00,
2013-01-11 17:53:00,46.0,46.0,-100.00,SE,140,4.0,7.0,99,-99.99,,,-99.99,,2013-01-11 23:53:00,
2013-01-11 18:02:00,46.0,46.0,-100.00,SE,140,4.0,7.0,99,-99.99,,,-99.99,,2013-01-12 00:02:00,
2013-01-11 18:12:00,46.0,46.0,-100.00,SE,140,4.0,7.0,99,-99.99,,,-99.99,,2013-01-12 00:12:00,
2013-01-11 18:23:00,46.0,46.0,-100.00,SE,140,4.0,7.0,99,-99.99,,,-99.99,,2013-01-12 00:23:00,
2013-01-11 19:53:00,46.0,46.0,-100.00,ESE,120,6.0,11.0,99,-99.99,,,-99.99,,2013-01-12 01:53:00,
2013-01-11 20:02:00,46.0,46.0,-100.00,ESE,120,6.0,11.0,99,-99.99,,,-99.99,,2013-01-12 02:02:00,
2013-01-11 20:12:00,46.0,46.0,-100.00,ESE,120,6.0,11.0,99,-99.99,,,-99.99,,2013-01-12 02:12:00,
2013-01-11 20:22:00,46.0,46.0,-100.00,ESE,120,6.0,11.0,99,-99.99,,,-99.99,,2013-01-12 02:22:00,
2013-01-11 20:53:00,47.0,47.0,-100.00,SE,140,5.0,10.0,99,-99.99,,,-99.99,,2013-01-12 02:53:00,
2013-01-11 21:03:00,47.0,47.0,-100.00,SE,140,5.0,10.0,99,-99.99,,,-99.99,,2013-01-12 03:03:00,
2013-01-11 21:12:00,47.0,47.0,-100.00,SE,140,5.0,10.0,99,-99.99,,,-99.99,,2013-01-12 03:12:00,
2013-01-11 21:22:00,47.0,47.0,-100.00,SE,140,5.0,10.0,99,-99.99,,,-99.99,,2013-01-12 03:22:00,
2013-01-11 21:53:00,47.0,47.0,-100.00,SSE,155,4.0,8.0,99,-99.99,,,-99.99,,2013-01-12 03:53:00,
2013-01-11 22:02:00,47.0,47.0,-100.00,SSE,155,4.0,8.0,99,-99.99,,,-99.99,,2013-01-12 04:02:00,
2013-01-11 22:12:00,47.0,47.0,-100.00,SSE,155,4.0,8.0,99,-99.99,,,-99.99,,2013-01-12 04:12:00,
2013-01-11 22:22:00,47.0,47.0,-100.00,SSE,155,4.0,8.0,99,-99.99,,,-99.99,,2013-01-12 04:22:00,
2013-01-11 22:52:00,49.0,48.0,-100.00,SSE,155,7.0,14.0,99,-99.99,,,-99.99,,2013-01-12 04:52:00,
2013-01-11 23:03:00,49.0,48.0,-100.00,SSE,155,7.0,14.0,99,-99.99,,,-99.99,,2013-01-12 05:03:00,
2013-01-11 23:12:00,49.0,48.0,-100.00,SSE,155,7.0,14.0,99,-99.99,,,-99.99,,2013-01-12 05:12:00,
2013-01-11 23:22:00,49.0,48.0,-100.00,SSE,155,7.0,14.0,99,-99.99,,,-99.99,,2013-01-12 05:22:00,
2013-01-11 23:52:00,48.0,48.0,-100.00,SSE,160,7.0,12.0,99,-99.99,,,-99.99,,2013-01-12 05:52:00,